Nathaniel B. Palmer — WBP3210 — position and weather

sailwx.info

Track history (hours):
 
Tides and Currents Weather Stations Pressure Air Temp Water Temp Dewpoint Dewpoint Depression Visibility Wind Speed Wind Dir Waves Ship Positions

Oceanographic research ship Nathaniel B. Palmer (USA)

Contact: Ethan Norris, ethan.norris.contractor@usap.gov

Detailed information on ship capabilities available from University of Delaware's Ocean Information Center and ARCUS's ALIAS (Arctic Logistics Information and Support) project.

Owner: OFFSHORE SERVICE VESSELS, GALLIANO, LA. More information available from US FCC via Universal Licensing System and Coast Guard Vessel Documentation Center.

Last reported at 2016-Sep-26 18:00 UTC. Time now 2016-Sep-26 18:58 UTC.
Position S 62°18' W 064°36'.

Type: Other ship. MMSI: 366610000.

Wind from 330 at 19 knots

Barometer 988.6 mb
Air temperature -0.6 ° C
Water temperature -1.4 ° C

Date/timePositionNaut miles runAvg speedWind from/ knotsBaromVisibWave heightAir tempDewpointWater temp
2016-Sep-26 18:00S 62°18' W 064°36'0 0.0 330 / 19988.6 -0.6 -1.4
2016-Sep-26 17:00S 62°18' W 064°36'0 0.0 330 / 19988.8 -0.4 -1.4
2016-Sep-26 16:00S 62°18' W 064°36'0 0.0 330 / 19988.7 -0.3 -1.4
2016-Sep-26 15:00S 62°18' W 064°36'0 0.0 330 / 20988.8 -0.3 -1.4
2016-Sep-26 14:00S 62°18' W 064°36'0 0.0 340 / 19989.1 -0.3 -1.4
2016-Sep-26 13:00S 62°18' W 064°36'0 0.0 350 / 17989.3 -0.4 -1.4
2016-Sep-26 12:00S 62°18' W 064°36'0 0.0 989.9 -0.5 -1.4
2016-Sep-26 11:00S 62°18' W 064°36'0 0.0 010 / 15990.5 -0.6 -1.4
2016-Sep-26 10:00S 62°18' W 064°36'0 0.0 020 / 16991.2 -0.7 -1.4
2016-Sep-26 09:00S 62°18' W 064°36'6 5.6 040 / 17991.9 -0.6 -1.4
2016-Sep-26 08:00S 62°18' W 064°24'1010.3 050 / 15993.5 -0.9 -1.4
2016-Sep-26 07:00S 62°24' W 064°06'6 5.6 060 / 16995.3 -1.5 -1.5
2016-Sep-26 06:00S 62°24' W 063°54'1010.3 060 / 14997.1 -1.6 -1.4
2016-Sep-26 05:00S 62°30' W 063°36'8 8.3 050 / 14998.8 -1.4 -1.4
2016-Sep-26 04:00S 62°30' W 063°18'8 8.2 050 / 131000.2 -1.2 -1.4
2016-Sep-26 03:00S 62°36' W 063°06'8 8.3 030 / 121001.4 -0.6 -1.4
2016-Sep-26 02:00S 62°36' W 062°48'1010.2 1002.5 -0.7 -1.4
2016-Sep-26 01:00S 62°42' W 062°30'8 8.3 350 / 121003.2 -0.9 -1.4
2016-Sep-26 00:00S 62°42' W 062°12'1010.2 290 / 101003.8 -0.6 -1.3
2016-Sep-25 23:00S 62°48' W 061°54'1010.2 290 / 121004.3 -0.4 -1.3
2016-Sep-25 22:00S 62°54' W 061°36'8 8.2 310 / 211004.0 -0.4 -1.3
2016-Sep-25 21:00S 62°54' W 061°18'1212.5 310 / 251003.8 -0.1 -1.4
2016-Sep-25 20:00S 62°48' W 060°54'1010.2 310 / 221004.7 0.2 -1.3
2016-Sep-25 19:00S 62°42' W 060°36'3 2.8 320 / 231005.1 0.3 -1.4
2016-Sep-25 18:00S 62°42' W 060°30'0 0.0 320 / 251005.5 0.4 -1.3
2016-Sep-25 17:00S 62°42' W 060°30'0 0.0 320 / 271005.4 0.2 -1.4
2016-Sep-25 16:00S 62°42' W 060°30'0 0.0 320 / 241005.6 0.2 -1.4
2016-Sep-25 15:00S 62°42' W 060°30'0 0.0 320 / 231005.3 0.2 -1.4
2016-Sep-25 14:00S 62°42' W 060°30'0 0.0 320 / 271005.0 0.2 -1.4
2016-Sep-25 13:00S 62°42' W 060°30'0 0.0 320 / 271004.7 0.4 -1.4
2016-Sep-25 12:00S 62°42' W 060°30'3 2.8 320 / 261004.7 0.4 -1.4
2016-Sep-25 11:00S 62°42' W 060°36'3 2.8 320 / 261004.3 0.3 -1.3
2016-Sep-25 10:00S 62°42' W 060°30'0 0.0 310 / 301003.3 0.7 -1.4
2016-Sep-25 09:00S 62°42' W 060°30'0 0.0 310 / 301003.8 0.5 -1.3
2016-Sep-25 08:00S 62°42' W 060°30'7 6.6 310 / 291002.2 0.5 -1.3
2016-Sep-25 07:00S 62°48' W 060°24'8 8.2 310 / 261002.6 0.2 -1.2
2016-Sep-25 06:00S 62°48' W 060°06'8 8.1 310 / 311002.0 0.7 -1.2
2016-Sep-25 05:00S 62°42' W 059°54'8 8.1 270 / 251001.1 3.4 -1.2
2016-Sep-25 04:00S 62°36' W 059°42'6 5.5 300 / 291000.5 3.0 -1.3
2016-Sep-25 03:00S 62°36' W 059°30'7 6.6 300 / 39999.9 0.8 -1.3
2016-Sep-25 02:00S 62°30' W 059°24'7 6.6 300 / 371001.0 1.1 -1.5
2016-Sep-25 01:00S 62°24' W 059°30'0 0.0 300 / 331001.6 0.6 -1.6
2016-Sep-25 00:00S 62°24' W 059°30'0 0.0 310 / 351000.9 0.5 -1.6
2016-Sep-24 23:00S 62°24' W 059°30'0 0.0 310 / 351000.7 0.6 -1.6
2016-Sep-24 22:00S 62°24' W 059°30'0 0.0 310 / 361000.4 0.7 -1.6
2016-Sep-24 21:00S 62°24' W 059°30'0 0.0 310 / 361000.3 0.7 -1.6
2016-Sep-24 20:00S 62°24' W 059°30'0 0.0 310 / 341000.7 0.6 -1.6
2016-Sep-24 19:00S 62°24' W 059°30'0 0.0 310 / 341000.4 0.5 -1.6
2016-Sep-24 18:00S 62°24' W 059°30'0 0.0 320 / 341000.3 0.5 -1.6
2016-Sep-24 17:00S 62°24' W 059°30'0 0.0 310 / 35999.8 0.7 -1.6
2016-Sep-24 16:00S 62°24' W 059°30'0 0.0 310 / 37998.9 0.9 -1.6
2016-Sep-24 15:00S 62°24' W 059°30'0 0.0 310 / 38998.1 0.8 -1.6
2016-Sep-24 14:00S 62°24' W 059°30'0 0.0 310 / 36997.7 0.7 -1.6
2016-Sep-24 13:00S 62°24' W 059°30'0 0.0 310 / 34997.8 0.5 -1.6
2016-Sep-24 12:00S 62°24' W 059°30'0 0.0 300 / 30997.5 -0.2 -1.6
2016-Sep-24 11:00S 62°24' W 059°30'0 0.0 300 / 28997.5 -0.2 -1.6
2016-Sep-24 10:00S 62°24' W 059°30'7 6.6 300 / 35996.2 0.2 -1.6
2016-Sep-24 09:00S 62°30' W 059°24'0 0.0 290 / 40993.7 0.8 -1.6
2016-Sep-24 08:00S 62°30' W 059°24'0 0.0 300 / 42992.2 0.7 -1.6
2016-Sep-24 07:00S 62°30' W 059°24'3 2.8 290 / 46989.4 1.6 -1.6
2016-Sep-24 06:00S 62°30' W 059°18'7 6.6 300 / 36990.1 2.0 -1.4
2016-Sep-24 05:00S 62°36' W 059°12'0 0.0 280 / 31989.5 1.1 -1.4
2016-Sep-24 04:00S 62°36' W 059°12'0 0.0 300 / 36987.8 0.5 -1.5
2016-Sep-24 03:00S 62°36' W 059°12'3 2.8 300 / 34987.4 2.1 -1.6
2016-Sep-24 02:00S 62°36' W 059°18'6 5.5 310 / 35986.8 0.3 -1.7
2016-Sep-24 01:00S 62°36' W 059°30'3 2.8 320 / 35986.4 0.5 -1.6
2016-Sep-24 00:00S 62°36' W 059°36'6 5.5 320 / 30985.0 1.8 -1.5
2016-Sep-23 23:00S 62°36' W 059°48'6 6.0 310 / 18985.8 4.1 -1.4
2016-Sep-23 22:00S 62°42' W 059°48'3 2.8 290 / 10985.7 3.1 -1.4
2016-Sep-23 21:00S 62°42' W 059°54'0 0.0 330 / 28984.6 3.2 -1.4
2016-Sep-23 20:00S 62°42' W 059°54'0 0.0 320 / 33984.6 3.5 -1.4
2016-Sep-23 19:00S 62°42' W 059°54'0 0.0 330 / 37984.6 3.7 -1.4
2016-Sep-23 18:00S 62°42' W 059°54'0 0.0 320 / 36985.3 4.0 -1.4
2016-Sep-23 17:00S 62°42' W 059°54'0 0.0 320 / 37986.3 4.1 -1.4
2016-Sep-23 16:00S 62°42' W 059°54'3 2.8 320 / 43986.3 3.3 -1.4
2016-Sep-23 15:00S 62°42' W 059°48'8 8.3 320 / 42987.0 2.2 -1.5
2016-Sep-23 14:00S 62°42' W 059°30'1212.0 310 / 37990.1 0.6 -1.6
2016-Sep-23 13:00S 62°30' W 059°30'6 6.0 320 / 46991.5 1.1 -1.6
2016-Sep-23 12:00S 62°24' W 059°30'0 0.0 330 / 44993.1 0.4 -1.7
2016-Sep-23 11:00S 62°24' W 059°30'0 0.0 330 / 46993.1 0.2 -1.7
2016-Sep-23 10:00S 62°24' W 059°30'7 6.6 330 / 46993.6 0.3 -1.7
2016-Sep-23 09:00S 62°30' W 059°24'3 2.8 330 / 45994.6 0.5 -1.6
2016-Sep-23 08:00S 62°30' W 059°18'3 2.8 320 / 43996.8 1.4 -1.6
2016-Sep-23 07:00S 62°30' W 059°12'3 2.8 340 / 26999.8 -0.1 -1.6
2016-Sep-23 06:00S 62°30' W 059°06'7 6.6 330 / 301001.1 -0.6 -1.5
2016-Sep-23 05:00S 62°36' W 059°00'3 2.8 320 / 201002.7 -0.7 -1.5
2016-Sep-23 04:00S 62°36' W 058°54'3 2.8 310 / 181004.0 -0.7 -1.5
2016-Sep-23 03:00S 62°36' W 059°00'7 6.6 330 / 71004.8 -1.1 -1.5
2016-Sep-23 02:00S 62°30' W 059°06'8 8.3 290 / 131004.5 -1.1 -1.5
2016-Sep-23 01:00S 62°30' W 059°24'7 6.6 290 / 211004.4 -1.7 -1.6
2016-Sep-23 00:00S 62°24' W 059°30'0 0.0 280 / 291003.7 -2.1 -1.7
2016-Sep-22 23:00S 62°24' W 059°30'0 0.0 270 / 271003.7 -2.1 -1.7
2016-Sep-22 22:00S 62°24' W 059°30'0 0.0 280 / 371002.7 -2.0 -1.7
2016-Sep-22 21:00S 62°24' W 059°30'6 5.6 280 / 311001.8 -2.1 -1.7
2016-Sep-22 20:00S 62°24' W 059°18'3 2.8 250 / 291000.4 -1.9 -1.6
2016-Sep-22 19:00S 62°24' W 059°12'3 2.8 250 / 31997.9 -0.9 -1.6
2016-Sep-22 18:00S 62°24' W 059°18'0 0.0 260 / 31996.1 -1.4 -1.6
2016-Sep-22 17:00S 62°24' W 059°18'0 0.0 250 / 29994.5 -1.8 -1.6
2016-Sep-22 16:00S 62°24' W 059°18'3 1.4 260 / 36992.4 -1.9 -1.6
2016-Sep-22 14:00S 62°24' W 059°24'0 0.0 260 / 37987.7 -1.3 -1.7
2016-Sep-22 12:00S 62°24' W 059°24'99 5.5 260 / 28983.4 -0.6 -1.6
2016-Sep-21 18:00S 63°24' W 056°30'7 6.6 350 / 31984.9 -0.8 -1.8
2016-Sep-21 17:00S 63°30' W 056°24'7 6.6 340 / 31984.8 0.2 -1.8
2016-Sep-21 16:00S 63°36' W 056°30'1110.7 340 / 29984.7 -0.7 -1.7
2016-Sep-21 15:00S 63°36' W 056°54'8 8.0 310 / 24986.8 0.2 -1.7
2016-Sep-21 14:00S 63°36' W 057°12'0 0.0 020 / 17988.9 -1.4 -1.8
2016-Sep-21 13:00S 63°36' W 057°12'0 0.0 350 / 24988.6 -0.2 -1.8
2016-Sep-21 12:00S 63°36' W 057°12'0 0.0 350 / 21988.7 -1.2 -1.8
2016-Sep-21 11:00S 63°36' W 057°12'0 0.0 350 / 21988.8 -0.8 -1.8
2016-Sep-21 10:00S 63°36' W 057°12'0 0.0 350 / 22988.4 -0.9 -1.8
2016-Sep-21 09:00S 63°36' W 057°12'7 6.6 350 / 17988.1 0.1 -1.8
2016-Sep-21 08:00S 63°42' W 057°06'0 0.0 330 / 6988.3 0.2 -1.7
2016-Sep-21 07:00S 63°42' W 057°06'3 2.7 030 / 13987.9 -0.4 -1.7
2016-Sep-21 06:00S 63°42' W 057°12'0 0.0 020 / 12987.2 -0.0 -1.7
2016-Sep-21 05:00S 63°42' W 057°12'3 2.7 986.6 0.3 -1.7
2016-Sep-21 04:00S 63°42' W 057°06'3 2.7 040 / 4986.1 0.8 -1.7
2016-Sep-21 03:00S 63°42' W 057°00'0 0.0 150 / 6984.7 0.9 -1.7
2016-Sep-21 02:00S 63°42' W 057°00'3 2.7 240 / 12982.7 3.1 -1.7
2016-Sep-21 01:00S 63°42' W 057°06'7 6.6 260 / 17981.1 2.6 -1.7
2016-Sep-21 00:00S 63°36' W 057°12'0 0.0 290 / 12980.2 4.0 -1.7
2016-Sep-20 23:00S 63°36' W 057°12'0 0.0 010 / 7979.1 4.5 -1.7
2016-Sep-20 22:00S 63°36' W 057°12'0 0.0 340 / 20978.1 3.1 -1.8
2016-Sep-20 21:00S 63°36' W 057°12'7 6.6 320 / 23978.0 2.2 -1.8
2016-Sep-20 20:00S 63°42' W 057°06'5 5.3 330 / 22977.5 2.0 -1.7
2016-Sep-20 19:00S 63°42' W 057°18'0 0.0 330 / 27977.5 2.3 -1.8
2016-Sep-20 18:00S 63°42' W 057°18'0 0.0 320 / 28978.0 2.3 -1.8
2016-Sep-20 17:00S 63°42' W 057°18'657656.7 330 / 24978.8 2.7 -1.8
2016-Sep-20 16:00S 53°48' W 048°18'655218.5 350 / 18827.2 2.1 -1.5
2016-Sep-20 13:00S 63°42' W 057°12'1717.1 010 / 17982.5 0.7 -1.8
2016-Sep-20 12:00S 63°36' W 056°36'8 8.0 350 / 25983.7 -0.1 -1.7
2016-Sep-20 11:00S 63°30' W 056°24'7 6.6 330 / 29985.5 -0.1 -1.8
2016-Sep-20 10:00S 63°24' W 056°30'8 8.1 350 / 20987.6 -0.4 -1.8
2016-Sep-20 09:00S 63°18' W 056°42'7 6.6 360 / 16988.7 -0.3 -1.8
2016-Sep-20 08:00S 63°12' W 056°48'8 8.1 360 / 17989.9 -0.1 -1.8
2016-Sep-20 07:00S 63°06' W 057°00'8 8.1 350 / 20990.7 -0.2 -1.8
2016-Sep-20 06:00S 63°00' W 057°12'8 8.1 350 / 20992.0 -0.3 -1.7
2016-Sep-20 05:00S 62°54' W 057°24'1212.3 350 / 20993.0 1.1 -1.6
2016-Sep-20 04:00S 62°42' W 057°30'8 8.1 350 / 22993.9 1.1 -1.6
2016-Sep-20 03:00S 62°36' W 057°42'1212.3 330 / 25995.0 0.6 -1.6
2016-Sep-20 02:00S 62°24' W 057°48'7 6.6 320 / 28996.5 0.5 -1.6
2016-Sep-20 01:00S 62°18' W 057°54'8 8.2 330 / 26997.8 0.6 -1.6
2016-Sep-20 00:00S 62°12' W 058°06'6 6.0 310 / 34997.9 2.1 -1.5
2016-Sep-19 23:00S 62°06' W 058°06'7 6.6 320 / 33999.1 2.1 -1.5
2016-Sep-19 22:00S 62°12' W 058°12'7 6.6 330 / 251000.6 0.6 -1.5
2016-Sep-19 21:00S 62°06' W 058°18'6 6.0 340 / 251001.9 1.5 -1.5
2016-Sep-19 20:00S 62°00' W 058°18'6 6.0 340 / 291001.8 1.9 -1.5
2016-Sep-19 19:00S 62°06' W 058°18'7 6.6 310 / 311000.8 1.5 -1.4
2016-Sep-19 18:00S 62°12' W 058°24'8 8.4 300 / 221002.2 0.7 -1.5
2016-Sep-19 17:00S 62°12' W 058°42'3 2.8 320 / 301003.2 0.6 -1.5
2016-Sep-19 16:00S 62°12' W 058°48'0 0.0 320 / 281003.1 0.3 -1.5
2016-Sep-19 15:00S 62°12' W 058°48'6 6.0 310 / 291002.4 0.2 -1.5
2016-Sep-19 14:00S 62°18' W 058°48'1312.7 310 / 311001.1 0.2 -1.6
2016-Sep-19 13:00S 62°24' W 059°12'6 5.6 300 / 231002.6 -0.0 -1.6
2016-Sep-19 12:00S 62°24' W 059°24'0 0.0 300 / 201002.7 0.3 -1.6
2016-Sep-19 11:00S 62°24' W 059°24'3 2.8 290 / 201002.6 -0.0 -1.6
2016-Sep-19 10:00S 62°24' W 059°18'0 0.0 290 / 231002.2 0.2 -1.6
2016-Sep-19 09:00S 62°24' W 059°18'3 2.8 290 / 231001.3 -0.0 -1.6
2016-Sep-19 08:00S 62°24' W 059°12'3 2.8 290 / 271000.3 0.1 -1.6
2016-Sep-19 07:00S 62°24' W 059°06'3 2.8 290 / 251000.3 0.1 -1.6
2016-Sep-19 06:00S 62°24' W 059°00'3 2.8 300 / 25999.8 -0.0 -1.6
2016-Sep-19 05:00S 62°24' W 058°54'3 2.8 300 / 34998.4 -0.0 -1.7
2016-Sep-19 04:00S 62°24' W 058°48'3 2.8 280 / 28998.5 0.1 -1.6
2016-Sep-19 03:00S 62°24' W 058°54'6 5.6 280 / 27998.2 0.2 -1.6
2016-Sep-19 02:00S 62°24' W 059°06'6 5.6 300 / 32996.7 1.3 -1.6
2016-Sep-19 01:00S 62°24' W 059°18'8 8.2 290 / 25996.9 0.2 -1.6
2016-Sep-19 00:00S 62°30' W 059°30'1010.2 280 / 27995.4 0.4 -1.6
2016-Sep-18 23:00S 62°36' W 059°48'1010.2 350 / 23993.3 1.8 -1.6
2016-Sep-18 22:00S 62°42' W 060°06'1010.2 290 / 28992.8 2.0 -1.7
2016-Sep-18 21:00S 62°48' W 060°24'3 2.7 290 / 22993.3 -0.5 -1.6
2016-Sep-18 20:00S 62°48' W 060°18'8 8.1 280 / 24991.6 -0.3 -1.6
2016-Sep-18 19:00S 62°54' W 060°06'8 8.1 260 / 33988.5 -0.0 -1.7
2016-Sep-18 18:00S 63°00' W 059°54'3 2.7 280 / 24987.4 -0.1 -1.7
2016-Sep-18 17:00S 63°00' W 059°48'0 0.0 300 / 18987.2 -0.1 -1.7
2016-Sep-18 16:00S 63°00' W 059°48'0 0.0 280 / 21986.4 -0.2 -1.7
2016-Sep-18 15:00S 63°00' W 059°48'3 2.7 290 / 21985.3 -0.1 -1.7
2016-Sep-18 14:00S 63°00' W 059°54'8 8.1 300 / 20985.1 -0.7 -1.8
2016-Sep-18 13:00S 62°54' W 060°06'7 6.6 310 / 23985.6 -0.5 -1.6
2016-Sep-18 12:00S 62°48' W 060°12'7 6.6 320 / 27986.2 -0.1 -1.7
2016-Sep-18 11:00S 62°42' W 060°18'6 6.0 320 / 32986.7 0.2 -1.7
2016-Sep-18 10:00S 62°48' W 060°18'8 8.2 310 / 31986.4 0.6 -1.7
2016-Sep-18 09:00S 62°48' W 060°36'8 8.2 310 / 29986.2 0.4 -1.6
2016-Sep-18 08:00S 62°48' W 060°54'1010.2 310 / 27985.4 0.7 -1.5
2016-Sep-18 07:00S 62°54' W 061°12'5 5.5 310 / 28984.6 0.2 -1.5
2016-Sep-18 06:00S 62°54' W 061°24'5 5.5 320 / 33985.2 -0.1 -1.5
2016-Sep-18 05:00S 62°54' W 061°36'5 5.5 330 / 30986.5 1.4 -1.6
2016-Sep-18 04:00S 62°54' W 061°48'7 6.6 330 / 31988.0 0.6 -1.6
2016-Sep-18 03:00S 62°48' W 061°54'7 6.6 310 / 22990.0 -0.5 -1.7
2016-Sep-18 02:00S 62°42' W 062°00'7 6.6 290 / 17990.8 -0.5 -1.7
2016-Sep-18 01:00S 62°36' W 061°54'8 8.2 270 / 19990.6 -0.2 -1.7
2016-Sep-18 00:00S 62°30' W 061°42'6 5.5 270 / 32989.1 0.1 -1.6
2016-Sep-17 23:00S 62°30' W 061°30'3 2.8 270 / 38986.4 -0.0 -1.6
2016-Sep-17 22:00S 62°30' W 061°24'8 8.2 280 / 39983.5 0.2 -1.6
2016-Sep-17 21:00S 62°24' W 061°36'1010.3 320 / 33982.6 1.3 -1.6
2016-Sep-17 20:00S 62°18' W 061°54'1010.3 330 / 32983.4 2.7 -1.6
2016-Sep-17 19:00S 62°12' W 062°12'1010.3 330 / 31985.0 2.8 -1.6
2016-Sep-17 18:00S 62°06' W 062°30'1514.7 330 / 33986.6 2.8 -1.6
2016-Sep-17 17:00S 61°54' W 062°48'3 2.8 330 / 32988.1 2.3 -1.5
2016-Sep-17 16:00S 61°54' W 062°54'0 0.0 330 / 30989.4 0.2 -1.6
2016-Sep-17 15:00S 61°54' W 062°54'0 0.0 330 / 29990.4 0.3 -1.6
2016-Sep-17 14:00S 61°54' W 062°54'0 0.0 330 / 29991.1 0.2 -1.6
2016-Sep-17 13:00S 61°54' W 062°54'0 0.0 330 / 28991.7 0.1 -1.6
2016-Sep-17 12:00S 61°54' W 062°54'0 0.0 330 / 25992.4 -0.0 -1.6
2016-Sep-17 11:00S 61°54' W 062°54'0 0.0 320 / 25992.8 -0.0 -1.6
2016-Sep-17 10:00S 61°54' W 062°54'0 0.0 320 / 24992.9 -0.0 -1.5
2016-Sep-17 09:00S 61°54' W 062°54'3 2.8 320 / 23993.2 -0.1 -1.6
2016-Sep-17 08:00S 61°54' W 062°48'3 2.8 320 / 23993.2 -0.3 -1.6
2016-Sep-17 07:00S 61°54' W 062°42'3 2.8 320 / 22993.3 -0.2 -1.6
2016-Sep-17 06:00S 61°54' W 062°48'7 6.6 320 / 21993.5 1.8 -1.6
2016-Sep-17 05:00S 61°48' W 062°54'7 6.6 320 / 19993.9 -0.4 -1.6
2016-Sep-17 04:00S 61°42' W 063°00'1212.0 310 / 20994.3 -0.4 -1.5
2016-Sep-17 03:00S 61°30' W 063°00'1212.3 310 / 20994.7 -0.3 -1.5
2016-Sep-17 02:00S 61°18' W 063°06'7 6.7 310 / 20995.0 -0.3 -1.5
2016-Sep-17 01:00S 61°12' W 063°12'1212.3 310 / 20995.2 -0.1 -1.5
2016-Sep-17 00:00S 61°00' W 063°18'6 6.0 300 / 21995.2 -0.0 -1.5
2016-Sep-16 23:00S 60°54' W 063°18'7 6.7 290 / 21995.3 -0.0 -1.6
2016-Sep-16 22:00S 60°48' W 063°24'6 6.0 290 / 21994.8 -0.0 -1.5
2016-Sep-16 21:00S 60°42' W 063°24'0 0.0 300 / 22994.1 -0.1 -1.5
2016-Sep-16 20:00S 60°42' W 063°24'0 0.0 290 / 20993.5 -0.2 -1.6
2016-Sep-16 19:00S 60°42' W 063°24'0 0.0 280 / 23992.8 0.1 -1.6
2016-Sep-16 18:00S 60°42' W 063°24'   290 / 22991.9 0.1 -1.6
Track history (hours):
 
Tides and Currents Weather Stations Pressure Air Temp Water Temp Dewpoint Dewpoint Depression Visibility Wind Speed Wind Dir Waves Ship Positions

Oceanographic research ship Nathaniel B. Palmer (USA)

Contact: Ethan Norris, ethan.norris.contractor@usap.gov

Detailed information on ship capabilities available from University of Delaware's Ocean Information Center and ARCUS's ALIAS (Arctic Logistics Information and Support) project.

Owner: OFFSHORE SERVICE VESSELS, GALLIANO, LA. More information available from US FCC via Universal Licensing System and Coast Guard Vessel Documentation Center.

Last reported at 2016-Sep-26 18:00 UTC. Time now 2016-Sep-26 18:58 UTC.
Position S 62°18' W 064°36'.

Type: Other ship. MMSI: 366610000.

Wind from 330 at 19 knots

Barometer 988.6 mb
Air temperature -0.6 ° C
Water temperature -1.4 ° C

Date/timePositionNaut miles runAvg speedWind from/ knotsBaromVisibWave heightAir tempDewpointWater temp
2016-Sep-26 18:00S 62°18' W 064°36'0 0.0 330 / 19988.6 -0.6 -1.4
2016-Sep-26 17:00S 62°18' W 064°36'0 0.0 330 / 19988.8 -0.4 -1.4
2016-Sep-26 16:00S 62°18' W 064°36'0 0.0 330 / 19988.7 -0.3 -1.4
2016-Sep-26 15:00S 62°18' W 064°36'0 0.0 330 / 20988.8 -0.3 -1.4
2016-Sep-26 14:00S 62°18' W 064°36'0 0.0 340 / 19989.1 -0.3 -1.4
2016-Sep-26 13:00S 62°18' W 064°36'0 0.0 350 / 17989.3 -0.4 -1.4
2016-Sep-26 12:00S 62°18' W 064°36'0 0.0 989.9 -0.5 -1.4
2016-Sep-26 11:00S 62°18' W 064°36'0 0.0 010 / 15990.5 -0.6 -1.4
2016-Sep-26 10:00S 62°18' W 064°36'0 0.0 020 / 16991.2 -0.7 -1.4
2016-Sep-26 09:00S 62°18' W 064°36'6 5.6 040 / 17991.9 -0.6 -1.4
2016-Sep-26 08:00S 62°18' W 064°24'1010.3 050 / 15993.5 -0.9 -1.4
2016-Sep-26 07:00S 62°24' W 064°06'6 5.6 060 / 16995.3 -1.5 -1.5
2016-Sep-26 06:00S 62°24' W 063°54'1010.3 060 / 14997.1 -1.6 -1.4
2016-Sep-26 05:00S 62°30' W 063°36'8 8.3 050 / 14998.8 -1.4 -1.4
2016-Sep-26 04:00S 62°30' W 063°18'8 8.2 050 / 131000.2 -1.2 -1.4
2016-Sep-26 03:00S 62°36' W 063°06'8 8.3 030 / 121001.4 -0.6 -1.4
2016-Sep-26 02:00S 62°36' W 062°48'1010.2 1002.5 -0.7 -1.4
2016-Sep-26 01:00S 62°42' W 062°30'8 8.3 350 / 121003.2 -0.9 -1.4
2016-Sep-26 00:00S 62°42' W 062°12'1010.2 290 / 101003.8 -0.6 -1.3
2016-Sep-25 23:00S 62°48' W 061°54'1010.2 290 / 121004.3 -0.4 -1.3
2016-Sep-25 22:00S 62°54' W 061°36'8 8.2 310 / 211004.0 -0.4 -1.3
2016-Sep-25 21:00S 62°54' W 061°18'1212.5 310 / 251003.8 -0.1 -1.4
2016-Sep-25 20:00S 62°48' W 060°54'1010.2 310 / 221004.7 0.2 -1.3
2016-Sep-25 19:00S 62°42' W 060°36'3 2.8 320 / 231005.1 0.3 -1.4
2016-Sep-25 18:00S 62°42' W 060°30'0 0.0 320 / 251005.5 0.4 -1.3
2016-Sep-25 17:00S 62°42' W 060°30'0 0.0 320 / 271005.4 0.2 -1.4
2016-Sep-25 16:00S 62°42' W 060°30'0 0.0 320 / 241005.6 0.2 -1.4
2016-Sep-25 15:00S 62°42' W 060°30'0 0.0 320 / 231005.3 0.2 -1.4
2016-Sep-25 14:00S 62°42' W 060°30'0 0.0 320 / 271005.0 0.2 -1.4
2016-Sep-25 13:00S 62°42' W 060°30'0 0.0 320 / 271004.7 0.4 -1.4
2016-Sep-25 12:00S 62°42' W 060°30'3 2.8 320 / 261004.7 0.4 -1.4
2016-Sep-25 11:00S 62°42' W 060°36'3 2.8 320 / 261004.3 0.3 -1.3
2016-Sep-25 10:00S 62°42' W 060°30'0 0.0 310 / 301003.3 0.7 -1.4
2016-Sep-25 09:00S 62°42' W 060°30'0 0.0 310 / 301003.8 0.5 -1.3
2016-Sep-25 08:00S 62°42' W 060°30'7 6.6 310 / 291002.2 0.5 -1.3
2016-Sep-25 07:00S 62°48' W 060°24'8 8.2 310 / 261002.6 0.2 -1.2
2016-Sep-25 06:00S 62°48' W 060°06'8 8.1 310 / 311002.0 0.7 -1.2
2016-Sep-25 05:00S 62°42' W 059°54'8 8.1 270 / 251001.1 3.4 -1.2
2016-Sep-25 04:00S 62°36' W 059°42'6 5.5 300 / 291000.5 3.0 -1.3
2016-Sep-25 03:00S 62°36' W 059°30'7 6.6 300 / 39999.9 0.8 -1.3
2016-Sep-25 02:00S 62°30' W 059°24'7 6.6 300 / 371001.0 1.1 -1.5
2016-Sep-25 01:00S 62°24' W 059°30'0 0.0 300 / 331001.6 0.6 -1.6
2016-Sep-25 00:00S 62°24' W 059°30'0 0.0 310 / 351000.9 0.5 -1.6
2016-Sep-24 23:00S 62°24' W 059°30'0 0.0 310 / 351000.7 0.6 -1.6
2016-Sep-24 22:00S 62°24' W 059°30'0 0.0 310 / 361000.4 0.7 -1.6
2016-Sep-24 21:00S 62°24' W 059°30'0 0.0 310 / 361000.3 0.7 -1.6
2016-Sep-24 20:00S 62°24' W 059°30'0 0.0 310 / 341000.7 0.6 -1.6
2016-Sep-24 19:00S 62°24' W 059°30'0 0.0 310 / 341000.4 0.5 -1.6
2016-Sep-24 18:00S 62°24' W 059°30'0 0.0 320 / 341000.3 0.5 -1.6
2016-Sep-24 17:00S 62°24' W 059°30'0 0.0 310 / 35999.8 0.7 -1.6
2016-Sep-24 16:00S 62°24' W 059°30'0 0.0 310 / 37998.9 0.9 -1.6
2016-Sep-24 15:00S 62°24' W 059°30'0 0.0 310 / 38998.1 0.8 -1.6
2016-Sep-24 14:00S 62°24' W 059°30'0 0.0 310 / 36997.7 0.7 -1.6
2016-Sep-24 13:00S 62°24' W 059°30'0 0.0 310 / 34997.8 0.5 -1.6
2016-Sep-24 12:00S 62°24' W 059°30'0 0.0 300 / 30997.5 -0.2 -1.6
2016-Sep-24 11:00S 62°24' W 059°30'0 0.0 300 / 28997.5 -0.2 -1.6
2016-Sep-24 10:00S 62°24' W 059°30'7 6.6 300 / 35996.2 0.2 -1.6
2016-Sep-24 09:00S 62°30' W 059°24'0 0.0 290 / 40993.7 0.8 -1.6
2016-Sep-24 08:00S 62°30' W 059°24'0 0.0 300 / 42992.2 0.7 -1.6
2016-Sep-24 07:00S 62°30' W 059°24'3 2.8 290 / 46989.4 1.6 -1.6
2016-Sep-24 06:00S 62°30' W 059°18'7 6.6 300 / 36990.1 2.0 -1.4
2016-Sep-24 05:00S 62°36' W 059°12'0 0.0 280 / 31989.5 1.1 -1.4
2016-Sep-24 04:00S 62°36' W 059°12'0 0.0 300 / 36987.8 0.5 -1.5
2016-Sep-24 03:00S 62°36' W 059°12'3 2.8 300 / 34987.4 2.1 -1.6
2016-Sep-24 02:00S 62°36' W 059°18'6 5.5 310 / 35986.8 0.3 -1.7
2016-Sep-24 01:00S 62°36' W 059°30'3 2.8 320 / 35986.4 0.5 -1.6
2016-Sep-24 00:00S 62°36' W 059°36'6 5.5 320 / 30985.0 1.8 -1.5
2016-Sep-23 23:00S 62°36' W 059°48'6 6.0 310 / 18985.8 4.1 -1.4
2016-Sep-23 22:00S 62°42' W 059°48'3 2.8 290 / 10985.7 3.1 -1.4
2016-Sep-23 21:00S 62°42' W 059°54'0 0.0 330 / 28984.6 3.2 -1.4
2016-Sep-23 20:00S 62°42' W 059°54'0 0.0 320 / 33984.6 3.5 -1.4
2016-Sep-23 19:00S 62°42' W 059°54'0 0.0 330 / 37984.6 3.7 -1.4
2016-Sep-23 18:00S 62°42' W 059°54'0 0.0 320 / 36985.3 4.0 -1.4
2016-Sep-23 17:00S 62°42' W 059°54'0 0.0 320 / 37986.3 4.1 -1.4
2016-Sep-23 16:00S 62°42' W 059°54'3 2.8 320 / 43986.3 3.3 -1.4
2016-Sep-23 15:00S 62°42' W 059°48'8 8.3 320 / 42987.0 2.2 -1.5
2016-Sep-23 14:00S 62°42' W 059°30'1212.0 310 / 37990.1 0.6 -1.6
2016-Sep-23 13:00S 62°30' W 059°30'6 6.0 320 / 46991.5 1.1 -1.6
2016-Sep-23 12:00S 62°24' W 059°30'0 0.0 330 / 44993.1 0.4 -1.7
2016-Sep-23 11:00S 62°24' W 059°30'0 0.0 330 / 46993.1 0.2 -1.7
2016-Sep-23 10:00S 62°24' W 059°30'7 6.6 330 / 46993.6 0.3 -1.7
2016-Sep-23 09:00S 62°30' W 059°24'3 2.8 330 / 45994.6 0.5 -1.6
2016-Sep-23 08:00S 62°30' W 059°18'3 2.8 320 / 43996.8 1.4 -1.6
2016-Sep-23 07:00S 62°30' W 059°12'3 2.8 340 / 26999.8 -0.1 -1.6
2016-Sep-23 06:00S 62°30' W 059°06'7 6.6 330 / 301001.1 -0.6 -1.5
2016-Sep-23 05:00S 62°36' W 059°00'3 2.8 320 / 201002.7 -0.7 -1.5
2016-Sep-23 04:00S 62°36' W 058°54'3 2.8 310 / 181004.0 -0.7 -1.5
2016-Sep-23 03:00S 62°36' W 059°00'7 6.6 330 / 71004.8 -1.1 -1.5
2016-Sep-23 02:00S 62°30' W 059°06'8 8.3 290 / 131004.5 -1.1 -1.5
2016-Sep-23 01:00S 62°30' W 059°24'7 6.6 290 / 211004.4 -1.7 -1.6
2016-Sep-23 00:00S 62°24' W 059°30'0 0.0 280 / 291003.7 -2.1 -1.7
2016-Sep-22 23:00S 62°24' W 059°30'0 0.0 270 / 271003.7 -2.1 -1.7
2016-Sep-22 22:00S 62°24' W 059°30'0 0.0 280 / 371002.7 -2.0 -1.7
2016-Sep-22 21:00S 62°24' W 059°30'6 5.6 280 / 311001.8 -2.1 -1.7
2016-Sep-22 20:00S 62°24' W 059°18'3 2.8 250 / 291000.4 -1.9 -1.6
2016-Sep-22 19:00S 62°24' W 059°12'3 2.8 250 / 31997.9 -0.9 -1.6
2016-Sep-22 18:00S 62°24' W 059°18'0 0.0 260 / 31996.1 -1.4 -1.6
2016-Sep-22 17:00S 62°24' W 059°18'0 0.0 250 / 29994.5 -1.8 -1.6
2016-Sep-22 16:00S 62°24' W 059°18'3 1.4 260 / 36992.4 -1.9 -1.6
2016-Sep-22 14:00S 62°24' W 059°24'0 0.0 260 / 37987.7 -1.3 -1.7
2016-Sep-22 12:00S 62°24' W 059°24'99 5.5 260 / 28983.4 -0.6 -1.6
2016-Sep-21 18:00S 63°24' W 056°30'7 6.6 350 / 31984.9 -0.8 -1.8
2016-Sep-21 17:00S 63°30' W 056°24'7 6.6 340 / 31984.8 0.2 -1.8
2016-Sep-21 16:00S 63°36' W 056°30'1110.7 340 / 29984.7 -0.7 -1.7
2016-Sep-21 15:00S 63°36' W 056°54'8 8.0 310 / 24986.8 0.2 -1.7
2016-Sep-21 14:00S 63°36' W 057°12'0 0.0 020 / 17988.9 -1.4 -1.8
2016-Sep-21 13:00S 63°36' W 057°12'0 0.0 350 / 24988.6 -0.2 -1.8
2016-Sep-21 12:00S 63°36' W 057°12'0 0.0 350 / 21988.7 -1.2 -1.8
2016-Sep-21 11:00S 63°36' W 057°12'0 0.0 350 / 21988.8 -0.8 -1.8
2016-Sep-21 10:00S 63°36' W 057°12'0 0.0 350 / 22988.4 -0.9 -1.8
2016-Sep-21 09:00S 63°36' W 057°12'7 6.6 350 / 17988.1 0.1 -1.8
2016-Sep-21 08:00S 63°42' W 057°06'0 0.0 330 / 6988.3 0.2 -1.7
2016-Sep-21 07:00S 63°42' W 057°06'3 2.7 030 / 13987.9 -0.4 -1.7
2016-Sep-21 06:00S 63°42' W 057°12'0 0.0 020 / 12987.2 -0.0 -1.7
2016-Sep-21 05:00S 63°42' W 057°12'3 2.7 986.6 0.3 -1.7
2016-Sep-21 04:00S 63°42' W 057°06'3 2.7 040 / 4986.1 0.8 -1.7
2016-Sep-21 03:00S 63°42' W 057°00'0 0.0 150 / 6984.7 0.9 -1.7
2016-Sep-21 02:00S 63°42' W 057°00'3 2.7 240 / 12982.7 3.1 -1.7
2016-Sep-21 01:00S 63°42' W 057°06'7 6.6 260 / 17981.1 2.6 -1.7
2016-Sep-21 00:00S 63°36' W 057°12'0 0.0 290 / 12980.2 4.0 -1.7
2016-Sep-20 23:00S 63°36' W 057°12'0 0.0 010 / 7979.1 4.5 -1.7
2016-Sep-20 22:00S 63°36' W 057°12'0 0.0 340 / 20978.1 3.1 -1.8
2016-Sep-20 21:00S 63°36' W 057°12'7 6.6 320 / 23978.0 2.2 -1.8
2016-Sep-20 20:00S 63°42' W 057°06'5 5.3 330 / 22977.5 2.0 -1.7
2016-Sep-20 19:00S 63°42' W 057°18'0 0.0 330 / 27977.5 2.3 -1.8
2016-Sep-20 18:00S 63°42' W 057°18'0 0.0 320 / 28978.0 2.3 -1.8
2016-Sep-20 17:00S 63°42' W 057°18'657656.7 330 / 24978.8 2.7 -1.8
2016-Sep-20 16:00S 53°48' W 048°18'655218.5 350 / 18827.2 2.1 -1.5
2016-Sep-20 13:00S 63°42' W 057°12'1717.1 010 / 17982.5 0.7 -1.8
2016-Sep-20 12:00S 63°36' W 056°36'8 8.0 350 / 25983.7 -0.1 -1.7
2016-Sep-20 11:00S 63°30' W 056°24'7 6.6 330 / 29985.5 -0.1 -1.8
2016-Sep-20 10:00S 63°24' W 056°30'8 8.1 350 / 20987.6 -0.4 -1.8
2016-Sep-20 09:00S 63°18' W 056°42'7 6.6 360 / 16988.7 -0.3 -1.8
2016-Sep-20 08:00S 63°12' W 056°48'8 8.1 360 / 17989.9 -0.1 -1.8
2016-Sep-20 07:00S 63°06' W 057°00'8 8.1 350 / 20990.7 -0.2 -1.8
2016-Sep-20 06:00S 63°00' W 057°12'8 8.1 350 / 20992.0 -0.3 -1.7
2016-Sep-20 05:00S 62°54' W 057°24'1212.3 350 / 20993.0 1.1 -1.6
2016-Sep-20 04:00S 62°42' W 057°30'8 8.1 350 / 22993.9 1.1 -1.6
2016-Sep-20 03:00S 62°36' W 057°42'1212.3 330 / 25995.0 0.6 -1.6
2016-Sep-20 02:00S 62°24' W 057°48'7 6.6 320 / 28996.5 0.5 -1.6
2016-Sep-20 01:00S 62°18' W 057°54'8 8.2 330 / 26997.8 0.6 -1.6
2016-Sep-20 00:00S 62°12' W 058°06'6 6.0 310 / 34997.9 2.1 -1.5
2016-Sep-19 23:00S 62°06' W 058°06'7 6.6 320 / 33999.1 2.1 -1.5
2016-Sep-19 22:00S 62°12' W 058°12'7 6.6 330 / 251000.6 0.6 -1.5
2016-Sep-19 21:00S 62°06' W 058°18'6 6.0 340 / 251001.9 1.5 -1.5
2016-Sep-19 20:00S 62°00' W 058°18'6 6.0 340 / 291001.8 1.9 -1.5
2016-Sep-19 19:00S 62°06' W 058°18'7 6.6 310 / 311000.8 1.5 -1.4
2016-Sep-19 18:00S 62°12' W 058°24'8 8.4 300 / 221002.2 0.7 -1.5
2016-Sep-19 17:00S 62°12' W 058°42'3 2.8 320 / 301003.2 0.6 -1.5
2016-Sep-19 16:00S 62°12' W 058°48'0 0.0 320 / 281003.1 0.3 -1.5
2016-Sep-19 15:00S 62°12' W 058°48'6 6.0 310 / 291002.4 0.2 -1.5
2016-Sep-19 14:00S 62°18' W 058°48'1312.7 310 / 311001.1 0.2 -1.6
2016-Sep-19 13:00S 62°24' W 059°12'6 5.6 300 / 231002.6 -0.0 -1.6
2016-Sep-19 12:00S 62°24' W 059°24'0 0.0 300 / 201002.7 0.3 -1.6
2016-Sep-19 11:00S 62°24' W 059°24'3 2.8 290 / 201002.6 -0.0 -1.6
2016-Sep-19 10:00S 62°24' W 059°18'0 0.0 290 / 231002.2 0.2 -1.6
2016-Sep-19 09:00S 62°24' W 059°18'3 2.8 290 / 231001.3 -0.0 -1.6
2016-Sep-19 08:00S 62°24' W 059°12'3 2.8 290 / 271000.3 0.1 -1.6
2016-Sep-19 07:00S 62°24' W 059°06'3 2.8 290 / 251000.3 0.1 -1.6
2016-Sep-19 06:00S 62°24' W 059°00'3 2.8 300 / 25999.8 -0.0 -1.6
2016-Sep-19 05:00S 62°24' W 058°54'3 2.8 300 / 34998.4 -0.0 -1.7
2016-Sep-19 04:00S 62°24' W 058°48'3 2.8 280 / 28998.5 0.1 -1.6
2016-Sep-19 03:00S 62°24' W 058°54'6 5.6 280 / 27998.2 0.2 -1.6
2016-Sep-19 02:00S 62°24' W 059°06'6 5.6 300 / 32996.7 1.3 -1.6
2016-Sep-19 01:00S 62°24' W 059°18'8 8.2 290 / 25996.9 0.2 -1.6
2016-Sep-19 00:00S 62°30' W 059°30'1010.2 280 / 27995.4 0.4 -1.6
2016-Sep-18 23:00S 62°36' W 059°48'1010.2 350 / 23993.3 1.8 -1.6
2016-Sep-18 22:00S 62°42' W 060°06'1010.2 290 / 28992.8 2.0 -1.7
2016-Sep-18 21:00S 62°48' W 060°24'3 2.7 290 / 22993.3 -0.5 -1.6
2016-Sep-18 20:00S 62°48' W 060°18'8 8.1 280 / 24991.6 -0.3 -1.6
2016-Sep-18 19:00S 62°54' W 060°06'8 8.1 260 / 33988.5 -0.0 -1.7
2016-Sep-18 18:00S 63°00' W 059°54'3 2.7 280 / 24987.4 -0.1 -1.7
2016-Sep-18 17:00S 63°00' W 059°48'0 0.0 300 / 18987.2 -0.1 -1.7
2016-Sep-18 16:00S 63°00' W 059°48'0 0.0 280 / 21986.4 -0.2 -1.7
2016-Sep-18 15:00S 63°00' W 059°48'3 2.7 290 / 21985.3 -0.1 -1.7
2016-Sep-18 14:00S 63°00' W 059°54'8 8.1 300 / 20985.1 -0.7 -1.8
2016-Sep-18 13:00S 62°54' W 060°06'7 6.6 310 / 23985.6 -0.5 -1.6
2016-Sep-18 12:00S 62°48' W 060°12'7 6.6 320 / 27986.2 -0.1 -1.7
2016-Sep-18 11:00S 62°42' W 060°18'6 6.0 320 / 32986.7 0.2 -1.7
2016-Sep-18 10:00S 62°48' W 060°18'8 8.2 310 / 31986.4 0.6 -1.7
2016-Sep-18 09:00S 62°48' W 060°36'8 8.2 310 / 29986.2 0.4 -1.6
2016-Sep-18 08:00S 62°48' W 060°54'1010.2 310 / 27985.4 0.7 -1.5
2016-Sep-18 07:00S 62°54' W 061°12'5 5.5 310 / 28984.6 0.2 -1.5
2016-Sep-18 06:00S 62°54' W 061°24'5 5.5 320 / 33985.2 -0.1 -1.5
2016-Sep-18 05:00S 62°54' W 061°36'5 5.5 330 / 30986.5 1.4 -1.6
2016-Sep-18 04:00S 62°54' W 061°48'7 6.6 330 / 31988.0 0.6 -1.6
2016-Sep-18 03:00S 62°48' W 061°54'7 6.6 310 / 22990.0 -0.5 -1.7
2016-Sep-18 02:00S 62°42' W 062°00'7 6.6 290 / 17990.8 -0.5 -1.7
2016-Sep-18 01:00S 62°36' W 061°54'8 8.2 270 / 19990.6 -0.2 -1.7
2016-Sep-18 00:00S 62°30' W 061°42'6 5.5 270 / 32989.1 0.1 -1.6
2016-Sep-17 23:00S 62°30' W 061°30'3 2.8 270 / 38986.4 -0.0 -1.6
2016-Sep-17 22:00S 62°30' W 061°24'8 8.2 280 / 39983.5 0.2 -1.6
2016-Sep-17 21:00S 62°24' W 061°36'1010.3 320 / 33982.6 1.3 -1.6
2016-Sep-17 20:00S 62°18' W 061°54'1010.3 330 / 32983.4 2.7 -1.6
2016-Sep-17 19:00S 62°12' W 062°12'1010.3 330 / 31985.0 2.8 -1.6
2016-Sep-17 18:00S 62°06' W 062°30'1514.7 330 / 33986.6 2.8 -1.6
2016-Sep-17 17:00S 61°54' W 062°48'3 2.8 330 / 32988.1 2.3 -1.5
2016-Sep-17 16:00S 61°54' W 062°54'0 0.0 330 / 30989.4 0.2 -1.6
2016-Sep-17 15:00S 61°54' W 062°54'0 0.0 330 / 29990.4 0.3 -1.6
2016-Sep-17 14:00S 61°54' W 062°54'0 0.0 330 / 29991.1 0.2 -1.6
2016-Sep-17 13:00S 61°54' W 062°54'0 0.0 330 / 28991.7 0.1 -1.6
2016-Sep-17 12:00S 61°54' W 062°54'0 0.0 330 / 25992.4 -0.0 -1.6
2016-Sep-17 11:00S 61°54' W 062°54'0 0.0 320 / 25992.8 -0.0 -1.6
2016-Sep-17 10:00S 61°54' W 062°54'0 0.0 320 / 24992.9 -0.0 -1.5
2016-Sep-17 09:00S 61°54' W 062°54'3 2.8 320 / 23993.2 -0.1 -1.6
2016-Sep-17 08:00S 61°54' W 062°48'3 2.8 320 / 23993.2 -0.3 -1.6
2016-Sep-17 07:00S 61°54' W 062°42'3 2.8 320 / 22993.3 -0.2 -1.6
2016-Sep-17 06:00S 61°54' W 062°48'7 6.6 320 / 21993.5 1.8 -1.6
2016-Sep-17 05:00S 61°48' W 062°54'7 6.6 320 / 19993.9 -0.4 -1.6
2016-Sep-17 04:00S 61°42' W 063°00'1212.0 310 / 20994.3 -0.4 -1.5
2016-Sep-17 03:00S 61°30' W 063°00'1212.3 310 / 20994.7 -0.3 -1.5
2016-Sep-17 02:00S 61°18' W 063°06'7 6.7 310 / 20995.0 -0.3 -1.5
2016-Sep-17 01:00S 61°12' W 063°12'1212.3 310 / 20995.2 -0.1 -1.5
2016-Sep-17 00:00S 61°00' W 063°18'6 6.0 300 / 21995.2 -0.0 -1.5
2016-Sep-16 23:00S 60°54' W 063°18'7 6.7 290 / 21995.3 -0.0 -1.6
2016-Sep-16 22:00S 60°48' W 063°24'6 6.0 290 / 21994.8 -0.0 -1.5
2016-Sep-16 21:00S 60°42' W 063°24'0 0.0 300 / 22994.1 -0.1 -1.5
2016-Sep-16 20:00S 60°42' W 063°24'0 0.0 290 / 20993.5 -0.2 -1.6
2016-Sep-16 19:00S 60°42' W 063°24'0 0.0 280 / 23992.8 0.1 -1.6
2016-Sep-16 18:00S 60°42' W 063°24'   290 / 22991.9 0.1 -1.6

Dump ship's entire track history